createdAt,value
2019-02-11T00:00:19.847Z,20.7
2019-02-11T00:03:25.784Z,20.7
2019-02-11T00:06:34.491Z,20.7
2019-02-11T00:09:40.498Z,20.7
2019-02-11T00:12:46.456Z,20.7
2019-02-11T00:15:52.370Z,20.7
2019-02-11T00:18:58.293Z,20.7
2019-02-11T00:22:04.287Z,20.7
2019-02-11T00:25:10.292Z,20.7
2019-02-11T00:28:16.175Z,20.6
2019-02-11T00:31:22.225Z,20.7
2019-02-11T00:34:28.710Z,20.7
2019-02-11T00:37:34.686Z,20.6
2019-02-11T00:40:40.597Z,20.6
2019-02-11T00:43:46.585Z,20.6
2019-02-11T00:46:52.440Z,20.6
2019-02-11T00:49:58.372Z,20.6
2019-02-11T00:53:04.541Z,20.6
2019-02-11T00:56:10.441Z,20.6
2019-02-11T00:59:16.359Z,20.6
2019-02-11T01:02:24.163Z,20.6
2019-02-11T01:05:30.119Z,20.6
2019-02-11T01:08:36.032Z,20.6
2019-02-11T01:11:42.028Z,20.6
2019-02-11T01:14:47.993Z,20.6
2019-02-11T01:17:53.879Z,20.6
2019-02-11T01:20:59.825Z,20.7
2019-02-11T01:24:05.699Z,20.7
2019-02-11T01:27:11.660Z,20.7
2019-02-11T01:30:17.601Z,20.7
2019-02-11T01:33:23.468Z,20.8
2019-02-11T01:36:29.390Z,20.8
2019-02-11T01:39:35.341Z,20.8
2019-02-11T01:42:41.302Z,20.8
2019-02-11T01:45:47.277Z,20.9
2019-02-11T01:48:56.043Z,20.9
2019-02-11T01:52:01.894Z,20.9
2019-02-11T01:55:07.885Z,20.9
2019-02-11T01:58:13.805Z,21
2019-02-11T02:01:19.779Z,21
2019-02-11T02:04:25.723Z,21
2019-02-11T02:07:31.649Z,21
2019-02-11T02:10:37.538Z,21
2019-02-11T02:13:44.971Z,21.1
2019-02-11T02:16:53.828Z,21.1
2019-02-11T02:19:59.763Z,21.2
2019-02-11T02:23:05.728Z,21.2
2019-02-11T02:26:11.652Z,21.2
2019-02-11T02:29:17.683Z,21.3
2019-02-11T02:32:23.645Z,21.3
2019-02-11T02:35:29.604Z,21.3
2019-02-11T02:38:35.471Z,21.4
2019-02-11T02:41:41.429Z,21.4
2019-02-11T02:44:47.296Z,21.4
2019-02-11T02:47:53.331Z,21.5
2019-02-11T02:50:59.209Z,21.5
2019-02-11T02:54:05.163Z,21.5
2019-02-11T02:57:11.173Z,21.5
2019-02-11T03:00:17.087Z,21.6
2019-02-11T03:03:23.139Z,21.6
2019-02-11T03:06:29.214Z,21.6
2019-02-11T03:09:35.168Z,21.6
2019-02-11T03:12:41.190Z,21.6
2019-02-11T03:15:47.277Z,21.7
2019-02-11T03:18:53.257Z,21.7
2019-02-11T03:21:59.211Z,21.7
2019-02-11T03:25:05.158Z,21.7
2019-02-11T03:28:11.026Z,21.8
2019-02-11T03:31:16.957Z,21.8
2019-02-11T03:34:22.865Z,21.8
2019-02-11T03:37:28.855Z,21.8
2019-02-11T03:40:34.849Z,21.8
2019-02-11T03:43:40.834Z,21.9
2019-02-11T03:46:46.772Z,21.9
2019-02-11T03:49:52.739Z,22
2019-02-11T03:52:58.750Z,22
2019-02-11T03:56:04.682Z,22.1
2019-02-11T03:59:10.647Z,22.1
2019-02-11T04:02:16.584Z,22.2
2019-02-11T04:05:22.592Z,22.2
2019-02-11T04:08:28.638Z,22.3
2019-02-11T04:11:37.224Z,22.3
2019-02-11T04:14:43.171Z,22.3
2019-02-11T04:17:49.135Z,22.4
2019-02-11T04:20:55.113Z,22.4
2019-02-11T04:24:00.958Z,22.4
2019-02-11T04:27:06.887Z,22.5
2019-02-11T04:30:12.936Z,22.5
2019-02-11T04:33:18.834Z,22.5
2019-02-11T04:36:24.905Z,22.6
2019-02-11T04:39:30.768Z,22.6
2019-02-11T04:42:36.645Z,22.5
2019-02-11T04:45:42.528Z,22.5
2019-02-11T04:48:48.488Z,22.5
2019-02-11T04:51:54.434Z,22.5
2019-02-11T04:55:02.611Z,22.5
2019-02-11T04:58:08.620Z,22.6
2019-02-11T05:01:14.578Z,22.6
2019-02-11T05:04:20.475Z,22.6
2019-02-11T05:07:26.485Z,22.7
2019-02-11T05:10:32.615Z,22.7
2019-02-11T05:13:38.628Z,22.8
2019-02-11T05:16:44.546Z,22.8
2019-02-11T05:19:50.548Z,22.8
2019-02-11T05:22:56.537Z,22.9
2019-02-11T05:26:02.485Z,22.9
2019-02-11T05:29:08.413Z,22.9
2019-02-11T05:32:14.324Z,23
2019-02-11T05:35:20.325Z,22.9
2019-02-11T05:38:26.347Z,23
2019-02-11T05:41:32.349Z,23
2019-02-11T05:44:38.438Z,23
2019-02-11T05:47:57.464Z,23.1
2019-02-11T05:51:03.464Z,23.1
2019-02-11T05:54:09.362Z,23.1
2019-02-11T05:57:15.395Z,23.1
2019-02-11T06:00:21.258Z,23.1
2019-02-11T06:03:27.359Z,23.2
2019-02-11T06:06:35.904Z,23.2
2019-02-11T06:09:41.919Z,23.2
2019-02-11T06:12:47.844Z,23.2
2019-02-11T06:15:53.735Z,23.3
2019-02-11T06:18:59.716Z,23.4
2019-02-11T06:22:05.644Z,23.5
2019-02-11T06:25:11.575Z,23.7
2019-02-11T06:28:17.519Z,23.8
2019-02-11T06:31:23.506Z,23.9
2019-02-11T06:34:29.514Z,24.1
2019-02-11T06:37:37.498Z,24.2
2019-02-11T06:40:43.525Z,24.3
2019-02-11T06:43:49.462Z,24.4
2019-02-11T06:46:55.378Z,24.5
2019-02-11T06:50:01.300Z,24.7
2019-02-11T06:53:07.350Z,24.8
2019-02-11T06:56:13.266Z,24.9
2019-02-11T06:59:19.320Z,24.9
2019-02-11T07:02:25.568Z,25
2019-02-11T07:05:31.443Z,25.1
2019-02-11T07:08:37.648Z,25.1
2019-02-11T07:11:43.620Z,25.2
2019-02-11T07:14:49.591Z,25.3
2019-02-11T07:17:56.497Z,25.4
2019-02-11T07:21:02.371Z,25.5
2019-02-11T07:24:08.392Z,25.7
2019-02-11T07:27:14.376Z,25.8
2019-02-11T07:30:20.243Z,25.8
2019-02-11T07:33:26.344Z,25.9
2019-02-11T07:36:32.577Z,25.9
2019-02-11T07:39:38.649Z,26
2019-02-11T07:42:44.609Z,26
2019-02-11T07:45:50.756Z,26
2019-02-11T07:48:57.133Z,26.1
2019-02-11T07:52:03.099Z,26.1
2019-02-11T07:55:09.192Z,26.1
2019-02-11T07:58:15.152Z,26.1
2019-02-11T08:01:21.136Z,26.2
2019-02-11T08:04:27.166Z,26.2
2019-02-11T08:07:33.133Z,26.3
2019-02-11T08:10:39.180Z,26.3
2019-02-11T08:13:45.302Z,26.4
2019-02-11T08:16:51.313Z,26.4
2019-02-11T08:19:57.267Z,26.4
2019-02-11T08:23:11.216Z,26.5
2019-02-11T08:26:19.415Z,26.5
2019-02-11T08:29:25.370Z,26.6
2019-02-11T08:32:31.537Z,26.5
2019-02-11T08:35:37.596Z,26.7
2019-02-11T08:38:43.696Z,26.7
2019-02-11T08:41:49.710Z,26.8
2019-02-11T08:44:55.743Z,26.8
2019-02-11T08:48:01.754Z,26.8
2019-02-11T08:51:08.025Z,26.9
2019-02-11T08:54:14.069Z,26.9
2019-02-11T08:57:20.088Z,27
2019-02-11T09:00:26.131Z,27.1
2019-02-11T09:03:32.023Z,27.2
2019-02-11T09:06:37.997Z,27.2
2019-02-11T09:09:44.110Z,27.2
2019-02-11T09:12:50.021Z,27.2
2019-02-11T09:15:56.013Z,27.2
2019-02-11T09:19:01.946Z,27.2
2019-02-11T09:22:08.110Z,27.2
2019-02-11T09:25:14.438Z,27.2
2019-02-11T09:28:20.390Z,27.2
2019-02-11T09:31:26.377Z,27.3
2019-02-11T09:34:32.328Z,27.3
2019-02-11T09:37:38.286Z,27.3
2019-02-11T09:40:44.346Z,27.3
2019-02-11T09:43:50.415Z,27.3
2019-02-11T09:46:56.486Z,27.3
2019-02-11T09:50:02.671Z,27.3
2019-02-11T09:53:08.723Z,27.3
2019-02-11T09:56:14.795Z,27.4
2019-02-11T09:59:20.892Z,27.5
2019-02-11T10:02:28.910Z,27.5
2019-02-11T10:05:37.684Z,27.5
2019-02-11T10:08:43.943Z,27.5
2019-02-11T10:11:50.062Z,27.5
2019-02-11T10:14:56.075Z,27.5
2019-02-11T10:18:02.126Z,27.5
2019-02-11T10:21:08.141Z,27.5
2019-02-11T10:24:14.086Z,27.5
2019-02-11T10:27:20.110Z,27.5
2019-02-11T10:30:26.154Z,27.4
2019-02-11T10:33:32.141Z,27.5
2019-02-11T10:36:38.198Z,27.5
2019-02-11T10:39:44.362Z,27.5
2019-02-11T10:42:50.312Z,27.5
2019-02-11T10:45:56.319Z,27.6
2019-02-11T10:49:02.401Z,27.6
2019-02-11T10:52:08.522Z,27.5
2019-02-11T10:55:14.632Z,27.5
2019-02-11T10:58:20.600Z,27.5
2019-02-11T11:01:26.503Z,27.6
2019-02-11T11:04:32.707Z,27.5
2019-02-11T11:07:38.649Z,27.5
2019-02-11T11:10:44.703Z,27.5
2019-02-11T11:13:50.796Z,27.5
2019-02-11T11:16:56.774Z,27.6
2019-02-11T11:20:02.735Z,27.6
2019-02-11T11:23:08.770Z,27.6
2019-02-11T11:26:16.390Z,27.6
2019-02-11T11:29:22.393Z,27.6
2019-02-11T11:32:28.333Z,27.6
2019-02-11T11:35:34.328Z,27.6
2019-02-11T11:38:40.429Z,27.5
2019-02-11T11:41:46.304Z,27.6
2019-02-11T11:44:52.423Z,27.6
2019-02-11T11:47:58.434Z,27.5
2019-02-11T11:51:04.477Z,27.5
2019-02-11T11:54:10.425Z,27.5
2019-02-11T11:57:16.468Z,27.5
2019-02-11T12:00:22.646Z,27.5
2019-02-11T12:03:28.968Z,27.5
2019-02-11T12:06:35.040Z,27.5
2019-02-11T12:09:43.741Z,27.5
2019-02-11T12:12:50.180Z,27.5
2019-02-11T12:15:58.403Z,27.5
2019-02-11T12:19:04.667Z,27.6
2019-02-11T12:22:13.029Z,27.5
2019-02-11T12:25:19.339Z,27.6
2019-02-11T12:28:27.460Z,27.6
2019-02-11T12:31:33.592Z,27.5
2019-02-11T12:34:39.599Z,27.6
2019-02-11T12:37:45.707Z,27.6
2019-02-11T12:40:51.956Z,27.6
2019-02-11T12:43:57.964Z,27.7
2019-02-11T12:47:13.636Z,27.6
2019-02-11T12:50:20.857Z,27.6
2019-02-11T12:53:27.394Z,27.6
2019-02-11T12:56:33.464Z,27.6
2019-02-11T12:59:39.468Z,27.6
2019-02-11T13:02:45.746Z,27.6
2019-02-11T13:05:52.118Z,27.6
2019-02-11T13:08:58.351Z,27.5
2019-02-11T13:12:04.321Z,27.6
2019-02-11T13:15:10.577Z,27.6
2019-02-11T13:19:05.873Z,27.6
2019-02-11T13:22:12.187Z,27.6
2019-02-11T13:25:18.567Z,27.6
2019-02-11T13:28:24.914Z,27.6
2019-02-11T13:31:31.092Z,27.6
2019-02-11T13:34:37.348Z,27.6
2019-02-11T13:37:43.622Z,27.6
2019-02-11T13:40:50.084Z,27.6
2019-02-11T13:43:56.532Z,27.6
2019-02-11T13:47:03.801Z,27.6
2019-02-11T13:50:10.106Z,27.6
2019-02-11T13:53:16.449Z,27.6
2019-02-11T13:56:22.483Z,27.6
2019-02-11T13:59:28.667Z,27.7
2019-02-11T14:02:34.752Z,27.7
2019-02-11T14:05:40.822Z,27.7
2019-02-11T14:08:48.112Z,27.7
2019-02-11T14:11:54.169Z,27.8
2019-02-11T14:15:00.646Z,27.8
2019-02-11T14:18:11.391Z,27.7
2019-02-11T14:21:21.090Z,27.7
2019-02-11T14:24:30.175Z,27.7
2019-02-11T14:27:36.066Z,27.5
2019-02-11T14:30:42.172Z,27.3
2019-02-11T14:33:48.222Z,27.2
2019-02-11T14:36:54.390Z,27.1
2019-02-11T14:40:00.641Z,26.9
2019-02-11T14:43:06.803Z,26.9
2019-02-11T14:46:13.253Z,26.8
2019-02-11T14:49:19.382Z,26.7
2019-02-11T14:52:27.595Z,26.7
2019-02-11T14:55:33.781Z,26.6
2019-02-11T14:58:39.764Z,26.6
2019-02-11T15:01:45.697Z,26.5
2019-02-11T15:04:51.652Z,26.5
2019-02-11T15:07:57.642Z,26.5
2019-02-11T15:11:03.666Z,26.4
2019-02-11T15:14:09.632Z,26.4
2019-02-11T15:17:15.572Z,26.4
2019-02-11T15:20:21.545Z,26.3
2019-02-11T15:23:27.472Z,26.3
2019-02-11T15:26:33.577Z,26.2
2019-02-11T15:29:39.439Z,26.2
2019-02-11T15:32:45.571Z,26.2
2019-02-11T15:35:54.446Z,26.2
2019-02-11T15:39:00.537Z,26.1
2019-02-11T15:42:06.450Z,26.1
2019-02-11T15:45:12.383Z,26.1
2019-02-11T15:48:18.491Z,26.1
2019-02-11T15:51:24.582Z,26
2019-02-11T15:54:30.663Z,26.1
2019-02-11T15:57:36.771Z,26.1
2019-02-11T16:00:42.877Z,26
2019-02-11T16:03:48.785Z,26
2019-02-11T16:06:54.740Z,26
2019-02-11T16:10:00.615Z,25.9
2019-02-11T16:13:06.667Z,25.9
2019-02-11T16:16:12.517Z,25.9
2019-02-11T16:19:21.392Z,25.9
2019-02-11T16:22:27.523Z,25.9
2019-02-11T16:25:33.546Z,25.9
2019-02-11T16:28:39.480Z,25.8
2019-02-11T16:31:45.545Z,25.8
2019-02-11T16:34:51.569Z,25.8
2019-02-11T16:37:57.509Z,25.8
2019-02-11T16:41:03.434Z,25.8
2019-02-11T16:44:09.329Z,25.8
2019-02-11T16:47:15.297Z,25.8
2019-02-11T16:50:21.349Z,25.8
2019-02-11T16:53:27.180Z,25.8
2019-02-11T16:56:33.213Z,25.7
2019-02-11T16:59:39.188Z,25.7
2019-02-11T17:02:45.481Z,25.7
2019-02-11T17:05:51.354Z,25.7
2019-02-11T17:08:57.331Z,25.6
2019-02-11T17:12:03.369Z,25.6
2019-02-11T17:15:09.339Z,25.6
2019-02-11T17:18:15.345Z,25.6
2019-02-11T17:21:21.302Z,25.6
2019-02-11T17:24:27.355Z,25.6
2019-02-11T17:27:33.279Z,25.5
2019-02-11T17:30:39.352Z,25.5
2019-02-11T17:33:45.382Z,25.5
2019-02-11T17:36:51.353Z,25.5
2019-02-11T17:39:57.276Z,25.5
2019-02-11T17:43:06.193Z,25.5
2019-02-11T17:46:12.153Z,25.4
2019-02-11T17:49:18.164Z,25.4
2019-02-11T17:52:24.019Z,25.4
2019-02-11T17:55:30.018Z,25.4
2019-02-11T17:58:36.019Z,25.3
2019-02-11T18:01:41.975Z,25.3
2019-02-11T18:04:47.993Z,25.2
2019-02-11T18:07:54.072Z,25.2
2019-02-11T18:11:00.041Z,25.1
2019-02-11T18:14:06.051Z,25.1
2019-02-11T18:17:14.869Z,25
2019-02-11T18:20:20.723Z,25
2019-02-11T18:23:26.671Z,25
2019-02-11T18:26:32.593Z,24.9
2019-02-11T18:29:38.555Z,24.9
2019-02-11T18:32:44.547Z,24.9
2019-02-11T18:35:50.608Z,24.8
2019-02-11T18:38:56.487Z,24.8
2019-02-11T18:42:02.467Z,24.7
2019-02-11T18:45:09.765Z,24.7
2019-02-11T18:48:15.853Z,24.7
2019-02-11T18:51:21.763Z,24.6
2019-02-11T18:54:27.735Z,24.6
2019-02-11T18:57:33.677Z,24.6
2019-02-11T19:00:39.625Z,24.5
2019-02-11T19:03:45.652Z,24.5
2019-02-11T19:06:51.604Z,24.5
2019-02-11T19:09:57.592Z,24.5
2019-02-11T19:13:03.688Z,24.4
2019-02-11T19:16:09.747Z,24.4
2019-02-11T19:19:15.713Z,24.4
2019-02-11T19:22:22.270Z,24.4
2019-02-11T19:25:28.333Z,24.3
2019-02-11T19:28:34.249Z,24.3
2019-02-11T19:31:40.192Z,24.3
2019-02-11T19:34:46.110Z,24.3
2019-02-11T19:37:52.050Z,24.2
2019-02-11T19:40:57.938Z,24.2
2019-02-11T19:44:03.949Z,24.2
2019-02-11T19:47:09.983Z,24.2
2019-02-11T19:50:15.925Z,24.1
2019-02-11T19:53:24.836Z,24.1
2019-02-11T19:56:30.706Z,24.1
2019-02-11T19:59:36.714Z,24.1
2019-02-11T20:02:42.710Z,24.1
2019-02-11T20:05:48.766Z,24
2019-02-11T20:08:54.745Z,24
2019-02-11T20:12:00.609Z,24
2019-02-11T20:15:06.576Z,24
2019-02-11T20:18:12.619Z,24
2019-02-11T20:21:18.496Z,23.9
2019-02-11T20:24:24.618Z,23.9
2019-02-11T20:27:30.501Z,23.9
2019-02-11T20:30:36.427Z,23.8
2019-02-11T20:33:42.328Z,23.8
2019-02-11T20:36:48.287Z,23.8
2019-02-11T20:40:03.112Z,23.8
2019-02-11T20:43:09.417Z,23.7
2019-02-11T20:46:15.528Z,23.7
2019-02-11T20:49:21.432Z,23.7
2019-02-11T20:52:27.446Z,23.6
2019-02-11T20:55:33.403Z,23.6
2019-02-11T20:58:39.376Z,23.6
2019-02-11T21:01:45.365Z,23.6
2019-02-11T21:04:51.340Z,23.5
2019-02-11T21:07:57.551Z,23.5
2019-02-11T21:11:03.527Z,23.5
2019-02-11T21:14:09.567Z,23.5
2019-02-11T21:17:15.528Z,23.5
2019-02-11T21:20:21.603Z,23.4
2019-02-11T21:23:27.606Z,23.4
2019-02-11T21:26:33.666Z,23.4
2019-02-11T21:29:39.588Z,23.4
2019-02-11T21:32:45.530Z,23.3
2019-02-11T21:35:51.884Z,23.3
2019-02-11T21:38:58.022Z,23.3
2019-02-11T21:42:03.984Z,23.3
2019-02-11T21:45:09.990Z,23.2
2019-02-11T21:48:15.903Z,23.2
2019-02-11T21:51:21.820Z,23.2
2019-02-11T21:54:27.905Z,23.2
2019-02-11T21:57:33.858Z,23.1
2019-02-11T22:00:39.820Z,23.1
2019-02-11T22:03:48.809Z,23.1
2019-02-11T22:06:54.897Z,23.1
2019-02-11T22:10:00.928Z,23.1
2019-02-11T22:13:06.953Z,23
2019-02-11T22:16:12.807Z,23
2019-02-11T22:19:18.815Z,23
2019-02-11T22:22:26.719Z,23
2019-02-11T22:25:32.685Z,23
2019-02-11T22:28:38.694Z,23
2019-02-11T22:31:44.769Z,22.9
2019-02-11T22:34:50.777Z,22.9
2019-02-11T22:37:56.863Z,22.9
2019-02-11T22:41:02.784Z,22.9
2019-02-11T22:44:08.786Z,22.9
2019-02-11T22:47:14.758Z,22.9
2019-02-11T22:50:20.715Z,22.8
2019-02-11T22:53:26.581Z,22.8
2019-02-11T22:56:32.668Z,22.8
2019-02-11T22:59:38.672Z,22.8
2019-02-11T23:02:44.583Z,22.8
2019-02-11T23:05:50.570Z,22.7
2019-02-11T23:08:56.474Z,22.7
2019-02-11T23:12:02.385Z,22.7
2019-02-11T23:15:08.386Z,22.7
2019-02-11T23:18:14.250Z,22.6
2019-02-11T23:21:20.209Z,22.6
2019-02-11T23:24:26.117Z,22.6
2019-02-11T23:27:32.090Z,22.6
2019-02-11T23:30:38.086Z,22.6
2019-02-11T23:33:43.998Z,22.6
2019-02-11T23:36:49.909Z,22.5
2019-02-11T23:39:55.847Z,22.5
2019-02-11T23:43:01.818Z,22.5
2019-02-11T23:46:07.686Z,22.5
2019-02-11T23:49:13.600Z,22.5
2019-02-11T23:52:19.507Z,22.5
2019-02-11T23:55:25.568Z,22.4
2019-02-11T23:58:31.476Z,22.4
